Time;durP1;ratioP1;P1;durP2;ratioP2;P2;SDS_P1;SDS_P2;PMS_P1;PMS_P2;Temp;Humidity;BMP_temperature;BMP_pressure;BME280_temperature;BME280_humidity;BME280_pressure;Samples;Min_cycle;Max_cycle;Signal;HPM_P1;HPM_P2
2023/03/31 00:01:19;;;;;;;5.25;1.42;;;19.80;65.70;;;;;;4991324;28;20121;-73
2023/03/31 00:03:46;;;;;;;5.20;0.80;;;19.80;65.70;;;;;;4991523;28;20054;-74
2023/03/31 00:06:16;;;;;;;4.13;1.52;;;19.80;65.70;;;;;;4992316;28;20057;-73
2023/03/31 00:08:44;;;;;;;4.18;0.60;;;19.70;65.70;;;;;;4992105;28;20062;-73
2023/03/31 00:11:11;;;;;;;3.15;0.68;;;19.70;65.70;;;;;;4985983;28;20057;-73
2023/03/31 00:13:39;;;;;;;4.97;1.50;;;19.70;65.70;;;;;;4972463;28;20058;-73
2023/03/31 00:16:09;;;;;;;4.35;1.67;;;19.70;65.80;;;;;;4972400;28;20058;-73
2023/03/31 00:18:39;;;;;;;6.40;1.38;;;19.70;65.80;;;;;;4971315;28;20669;-73
2023/03/31 00:21:13;;;;;;;3.40;0.63;;;19.60;65.80;;;;;;4971108;28;20062;-74
2023/03/31 00:23:40;;;;;;;3.90;1.52;;;19.60;65.80;;;;;;4977954;28;20047;-74
2023/03/31 00:26:07;;;;;;;5.70;1.55;;;19.60;65.80;;;;;;4991643;28;20415;-74
2023/03/31 00:28:34;;;;;;;2.65;0.47;;;19.50;65.80;;;;;;4991352;28;20050;-74
2023/03/31 00:31:02;;;;;;;4.38;0.60;;;19.60;65.90;;;;;;4990451;28;20050;-73
2023/03/31 00:33:30;;;;;;;2.83;1.10;;;19.60;65.90;;;;;;4990384;28;20046;-73
2023/03/31 00:36:00;;;;;;;4.72;1.33;;;19.50;65.90;;;;;;4991759;28;20069;-74
2023/03/31 00:38:29;;;;;;;4.03;0.47;;;19.50;65.80;;;;;;4991205;28;20521;-73
2023/03/31 00:40:56;;;;;;;3.67;1.20;;;19.50;65.90;;;;;;4991146;28;20785;-73
2023/03/31 00:43:31;;;;;;;3.42;1.38;;;19.50;65.90;;;;;;4991335;28;20046;-74
2023/03/31 00:46:12;;;;;;;3.30;1.02;;;19.50;65.90;;;;;;4989517;28;20054;-74
2023/03/31 00:48:47;;;;;;;4.40;1.00;;;19.50;66.00;;;;;;4990256;28;20057;-73
2023/03/31 00:51:14;;;;;;;3.75;1.33;;;19.40;65.90;;;;;;4990218;28;20062;-74
2023/03/31 00:53:42;;;;;;;3.60;1.67;;;19.40;65.90;;;;;;4989635;28;20046;-73
2023/03/31 00:56:12;;;;;;;5.32;1.48;;;19.40;66.00;;;;;;4990908;28;20050;-74
2023/03/31 00:58:42;;;;;;;5.53;1.60;;;19.40;66.00;;;;;;4991245;28;20085;-73
2023/03/31 01:01:10;;;;;;;;;;;19.40;66.00;;;;;;4990342;28;20058;-74
2023/03/31 01:03:37;;;;;;;3.53;1.30;;;19.40;65.90;;;;;;4975390;28;19926;-74
2023/03/31 01:06:09;;;;;;;3.80;1.38;;;19.30;65.90;;;;;;4970522;28;20057;-73
2023/03/31 01:08:38;;;;;;;5.57;1.48;;;19.40;66.50;;;;;;4971478;28;20109;-74
2023/03/31 01:11:09;;;;;;;4.78;1.55;;;19.40;66.00;;;;;;4970662;28;20050;-74
2023/03/31 01:13:39;;;;;;;4.15;1.48;;;19.30;65.90;;;;;;4971476;28;20051;-73
2023/03/31 01:16:06;;;;;;;5.65;1.63;;;19.30;66.00;;;;;;4969354;28;20060;-73
2023/03/31 01:18:34;;;;;;;4.65;1.65;;;19.30;66.00;;;;;;4971228;28;20054;-74
2023/03/31 01:21:58;;;;;;;5.18;1.10;;;19.30;66.00;;;;;;4989398;28;20089;-74
2023/03/31 01:25:00;;;;;;;5.07;1.30;;;19.30;66.00;;;;;;4969839;28;20046;-74
2023/03/31 01:28:02;;;;;;;4.05;1.50;;;19.30;66.00;;;;;;4969902;28;20062;-74
2023/03/31 01:30:47;;;;;;;5.72;1.05;;;19.30;66.00;;;;;;4970954;28;20393;-74
2023/03/31 01:33:51;;;;;;;4.30;1.08;;;19.30;66.00;;;;;;4969944;28;20065;-74
2023/03/31 01:37:03;;;;;;;5.07;1.33;;;19.20;66.00;;;;;;4926998;28;20446;-73
2023/03/31 01:40:11;;;;;;;4.47;1.08;;;19.30;65.90;;;;;;4990039;28;20047;-73
2023/03/31 01:42:43;;;;;;;3.90;1.27;;;19.30;65.90;;;;;;4911123;29;20064;-74
2023/03/31 01:45:18;;;;;;;4.30;1.65;;;19.40;65.80;;;;;;4979811;28;20782;-74
2023/03/31 01:47:49;;;;;;;2.65;1.00;;;19.40;65.80;;;;;;4989315;28;20073;-74
2023/03/31 01:50:25;;;;;;;5.15;1.45;;;19.50;65.70;;;;;;4991924;28;20117;-73
2023/03/31 01:52:58;;;;;;;4.15;0.93;;;19.50;65.60;;;;;;4989472;28;20094;-74
2023/03/31 01:55:32;;;;;;;4.80;0.75;;;19.60;65.60;;;;;;4970445;28;20057;-73
2023/03/31 01:58:03;;;;;;;4.25;1.40;;;19.60;65.40;;;;;;4969740;28;20055;-73
2023/03/31 02:00:34;;;;;;;3.22;0.85;;;19.70;65.30;;;;;;4971369;28;20129;-73
2023/03/31 02:03:06;;;;;;;3.50;0.95;;;19.80;65.30;;;;;;4971299;28;20093;-73
2023/03/31 02:05:38;;;;;;;3.13;1.20;;;19.80;65.20;;;;;;4970654;28;20490;-73
2023/03/31 02:08:09;;;;;;;3.40;1.25;;;19.90;65.10;;;;;;4970939;28;20058;-73
2023/03/31 02:10:41;;;;;;;4.28;1.00;;;19.90;65.00;;;;;;4969851;28;20050;-74
2023/03/31 02:13:08;;;;;;;3.55;1.25;;;20.00;64.80;;;;;;4970571;28;20065;-74
2023/03/31 02:15:39;;;;;;;3.88;1.13;;;20.10;64.90;;;;;;4970864;28;20062;-73
2023/03/31 02:18:10;;;;;;;2.30;1.00;;;20.10;64.80;;;;;;4969381;28;20102;-73
2023/03/31 02:20:40;;;;;;;2.85;0.85;;;20.10;64.70;;;;;;4976017;28;20145;-73
2023/03/31 02:23:10;;;;;;;3.97;1.40;;;20.10;64.70;;;;;;4990083;28;20136;-73
2023/03/31 02:25:49;;;;;;;3.15;0.50;;;20.10;64.70;;;;;;4989693;28;20206;-73
2023/03/31 02:28:21;;;;;;;2.85;1.10;;;20.10;64.70;;;;;;4978969;28;20068;-73
2023/03/31 02:30:56;;;;;;;4.05;0.90;;;20.10;64.70;;;;;;4973671;28;20062;-73
2023/03/31 02:33:23;;;;;;;3.75;1.13;;;20.10;64.80;;;;;;4974509;28;20062;-74
2023/03/31 02:35:51;;;;;;;2.58;0.30;;;20.10;64.80;;;;;;4974618;28;20097;-73
2023/03/31 02:38:18;;;;;;;2.53;1.13;;;20.10;64.80;;;;;;4973568;28;20094;-73
2023/03/31 02:40:46;;;;;;;3.47;1.10;;;20.10;64.90;;;;;;4992528;28;20062;-73
2023/03/31 02:43:13;;;;;;;3.22;0.90;;;20.00;64.90;;;;;;4993755;28;20058;-73
2023/03/31 02:45:43;;;;;;;4.30;1.10;;;20.00;64.90;;;;;;4992751;28;20066;-74
2023/03/31 02:48:16;;;;;;;2.72;1.23;;;20.00;65.00;;;;;;4993692;28;20399;-74
2023/03/31 02:51:24;;;;;;;2.35;0.47;;;20.00;65.00;;;;;;4992323;28;20050;-74
2023/03/31 02:54:08;;;;;;;5.45;1.15;;;20.00;65.10;;;;;;4936194;28;20046;-74
2023/03/31 02:56:46;;;;;;;2.83;0.90;;;19.90;65.10;;;;;;4993429;28;20054;-73
2023/03/31 02:59:26;;;;;;;3.17;1.08;;;19.90;65.10;;;;;;4992178;28;20400;-74
2023/03/31 03:02:07;;;;;;;3.45;1.02;;;19.90;65.10;;;;;;4992806;28;20054;-73
2023/03/31 03:04:49;;;;;;;4.43;0.45;;;19.90;65.20;;;;;;4993256;28;20518;-73
2023/03/31 03:07:25;;;;;;;3.28;1.38;;;19.80;65.10;;;;;;4993056;28;20446;-74
2023/03/31 03:10:02;;;;;;;3.35;0.50;;;19.80;65.20;;;;;;4993220;28;20054;-73
2023/03/31 03:12:37;;;;;;;3.38;1.00;;;19.80;65.30;;;;;;4991743;28;20057;-74
2023/03/31 03:15:09;;;;;;;2.50;1.05;;;19.80;65.30;;;;;;4993379;28;20050;-74
2023/03/31 03:17:40;;;;;;;4.60;1.17;;;19.70;65.20;;;;;;4992842;28;20062;-74
2023/03/31 03:20:09;;;;;;;3.97;1.05;;;19.70;65.20;;;;;;4985820;28;20050;-74
2023/03/31 03:22:37;;;;;;;3.72;1.00;;;19.70;65.30;;;;;;4993221;28;20057;-74
2023/03/31 03:25:04;;;;;;;2.13;0.32;;;19.70;65.30;;;;;;4991380;28;20137;-73
2023/03/31 03:27:34;;;;;;;3.22;0.50;;;19.70;65.30;;;;;;4993156;28;20058;-74
2023/03/31 03:30:03;;;;;;;3.60;0.90;;;19.70;65.30;;;;;;4992933;28;20427;-74
2023/03/31 03:32:32;;;;;;;4.57;1.02;;;19.60;65.40;;;;;;4991852;28;20489;-74
2023/03/31 03:35:00;;;;;;;2.80;0.47;;;19.60;66.00;;;;;;4989631;28;20097;-73
2023/03/31 03:37:27;;;;;;;2.72;1.15;;;19.60;65.40;;;;;;4973541;28;20046;-73
2023/03/31 03:39:54;;;;;;;3.35;1.67;;;19.60;65.50;;;;;;4984597;28;20431;-73
2023/03/31 03:42:21;;;;;;;3.17;1.00;;;19.50;65.40;;;;;;4992200;28;20113;-73
2023/03/31 03:44:49;;;;;;;2.33;0.90;;;19.50;65.50;;;;;;4992916;28;20042;-73
2023/03/31 03:47:16;;;;;;;2.88;1.10;;;19.50;65.50;;;;;;4992877;28;20054;-73
2023/03/31 03:49:43;;;;;;;3.17;1.20;;;19.50;65.50;;;;;;4992770;28;20050;-73
2023/03/31 03:52:10;;;;;;;3.40;0.57;;;19.50;65.50;;;;;;4988417;28;20046;-73
2023/03/31 03:54:37;;;;;;;1.83;0.40;;;19.50;65.60;;;;;;4971863;28;20054;-73
2023/03/31 03:57:05;;;;;;;2.35;0.45;;;19.40;65.50;;;;;;4972801;28;20046;-73
2023/03/31 03:59:32;;;;;;;3.97;1.10;;;19.40;65.50;;;;;;4973027;28;20073;-73
2023/03/31 04:02:00;;;;;;;2.83;1.00;;;19.40;65.50;;;;;;4971718;28;20058;-73
2023/03/31 04:04:27;;;;;;;2.78;1.20;;;19.40;65.60;;;;;;4971638;28;20057;-73
2023/03/31 04:06:54;;;;;;;2.67;0.80;;;19.40;65.60;;;;;;4972866;28;20047;-73
2023/03/31 04:09:21;;;;;;;2.30;1.13;;;19.40;65.60;;;;;;4972080;28;20062;-73
2023/03/31 04:11:48;;;;;;;3.63;1.38;;;19.40;65.60;;;;;;4972976;28;20054;-73
2023/03/31 04:14:15;;;;;;;2.53;0.50;;;19.40;65.60;;;;;;4971181;28;20125;-73
2023/03/31 04:16:42;;;;;;;3.03;0.43;;;19.30;65.50;;;;;;4972881;28;20059;-73
2023/03/31 04:19:11;;;;;;;2.50;0.70;;;19.30;65.60;;;;;;4987936;28;20392;-73
2023/03/31 04:21:43;;;;;;;2.97;0.90;;;19.30;66.20;;;;;;4990941;28;20058;-73
2023/03/31 04:24:14;;;;;;;3.22;1.00;;;19.30;65.60;;;;;;4991903;28;20195;-73
2023/03/31 04:26:42;;;;;;;3.17;0.82;;;19.30;65.60;;;;;;4982578;28;20055;-73
2023/03/31 04:29:11;;;;;;;2.97;0.88;;;19.30;65.70;;;;;;4971357;28;20086;-73
2023/03/31 04:31:41;;;;;;;2.40;0.73;;;19.20;65.60;;;;;;4970827;28;20145;-73
2023/03/31 04:34:12;;;;;;;1.98;0.80;;;19.20;65.60;;;;;;4972440;28;20153;-73
2023/03/31 04:36:41;;;;;;;2.65;1.45;;;19.30;65.60;;;;;;4987054;28;20145;-73
2023/03/31 04:39:10;;;;;;;2.47;1.15;;;19.30;65.70;;;;;;4979088;28;20058;-72
2023/03/31 04:41:37;;;;;;;2.55;0.88;;;19.30;65.70;;;;;;4990770;28;20546;-72
2023/03/31 04:44:04;;;;;;;2.75;1.17;;;19.30;65.60;;;;;;4978856;28;20055;-73
2023/03/31 04:46:32;;;;;;;2.55;1.27;;;19.30;65.50;;;;;;4971045;28;20050;-73
2023/03/31 04:49:00;;;;;;;3.13;1.02;;;19.40;65.50;;;;;;4970846;28;20605;-73
2023/03/31 04:51:29;;;;;;;2.53;0.93;;;19.40;66.00;;;;;;4972106;28;20057;-73
2023/03/31 04:53:56;;;;;;;3.03;1.20;;;19.40;65.40;;;;;;4970734;28;20058;-73
2023/03/31 04:56:23;;;;;;;1.67;0.70;;;19.50;65.30;;;;;;4970546;28;20492;-73
2023/03/31 04:58:49;;;;;;;1.75;0.82;;;19.50;65.20;;;;;;4970859;28;20054;-73
2023/03/31 05:01:17;;;;;;;3.40;0.30;;;19.60;65.20;;;;;;4980562;28;20050;-73
2023/03/31 05:03:46;;;;;;;2.28;0.80;;;19.70;65.10;;;;;;4990321;28;20139;-73
2023/03/31 05:06:13;;;;;;;3.17;1.25;;;19.70;65.00;;;;;;4979217;28;20475;-73
2023/03/31 05:08:42;;;;;;;2.45;0.70;;;19.80;64.90;;;;;;4991319;28;20069;-72
2023/03/31 05:11:09;;;;;;;3.90;0.80;;;19.90;64.80;;;;;;4991264;28;20065;-73
2023/03/31 05:13:37;;;;;;;3.30;1.00;;;19.90;64.70;;;;;;4989803;28;20058;-73
2023/03/31 05:16:08;;;;;;;2.72;0.88;;;20.00;65.10;;;;;;4990621;28;20050;-72
2023/03/31 05:18:35;;;;;;;2.00;0.73;;;20.10;64.50;;;;;;4990301;28;20518;-73
2023/03/31 05:21:10;;;;;;;2.67;0.90;;;20.10;64.40;;;;;;4991236;28;20069;-73
2023/03/31 05:23:37;;;;;;;2.17;0.80;;;20.10;64.40;;;;;;4990917;28;20084;-73
2023/03/31 05:26:06;;;;;;;2.13;0.70;;;20.10;64.30;;;;;;4989987;28;20058;-73
2023/03/31 05:28:34;;;;;;;3.30;0.95;;;20.20;64.40;;;;;;4989808;28;20480;-73
2023/03/31 05:31:02;;;;;;;2.47;0.40;;;20.10;64.40;;;;;;4989405;28;20055;-73
2023/03/31 05:33:29;;;;;;;2.83;0.88;;;20.20;64.50;;;;;;4989242;28;20054;-73
2023/03/31 05:35:58;;;;;;;1.50;0.30;;;20.10;64.40;;;;;;4971248;28;20072;-73
2023/03/31 05:38:27;;;;;;;3.05;0.30;;;20.10;64.50;;;;;;4971416;28;20086;-73
2023/03/31 05:40:55;;;;;;;2.25;0.90;;;20.10;64.50;;;;;;4989605;28;20069;-73
2023/03/31 05:43:24;;;;;;;2.03;0.22;;;20.10;64.50;;;;;;4990598;28;20560;-73
2023/03/31 05:45:50;;;;;;;2.20;1.45;;;20.10;64.60;;;;;;4990476;28;20042;-73
2023/03/31 05:48:17;;;;;;;3.40;0.88;;;20.00;64.60;;;;;;4990809;28;20058;-72
2023/03/31 05:50:44;;;;;;;2.67;0.75;;;20.00;64.70;;;;;;4988844;28;20060;-73
2023/03/31 05:53:11;;;;;;;2.67;1.30;;;20.00;64.70;;;;;;4970027;28;20411;-73
2023/03/31 05:55:39;;;;;;;3.17;0.30;;;20.00;64.70;;;;;;4971112;28;20055;-74
2023/03/31 05:58:07;;;;;;;1.20;0.32;;;20.00;64.80;;;;;;4971630;28;20057;-73
2023/03/31 06:00:36;;;;;;;2.60;0.85;;;19.90;64.70;;;;;;4969641;28;20061;-74
2023/03/31 06:03:06;;;;;;;;;;;19.90;64.80;;;;;;4971096;28;20080;-74
2023/03/31 06:05:33;;;;;;;2.10;0.88;;;19.80;64.80;;;;;;4971278;28;20290;-73
2023/03/31 06:08:00;;;;;;;2.70;0.95;;;19.80;64.80;;;;;;4971309;28;20122;-73
2023/03/31 06:10:27;;;;;;;2.70;1.00;;;19.90;64.90;;;;;;4970565;28;20054;-73
2023/03/31 06:12:54;;;;;;;1.83;0.73;;;19.80;65.00;;;;;;4975281;28;20062;-73
2023/03/31 06:15:21;;;;;;;2.40;0.90;;;19.90;65.10;;;;;;4990230;28;20054;-77
2023/03/31 06:17:49;;;;;;;1.83;0.95;;;19.80;65.10;;;;;;4988763;28;20065;-76
2023/03/31 06:20:16;;;;;;;3.05;0.47;;;19.80;65.20;;;;;;4990300;28;20082;-76
2023/03/31 06:22:43;;;;;;;2.08;0.50;;;19.70;65.20;;;;;;4990207;28;20062;-72
2023/03/31 06:25:10;;;;;;;3.92;0.93;;;19.70;65.30;;;;;;4989403;28;20496;-72
2023/03/31 06:27:37;;;;;;;1.48;0.40;;;19.70;65.40;;;;;;4988728;28;20050;-72
2023/03/31 06:30:05;;;;;;;2.17;0.50;;;19.70;65.40;;;;;;4988956;28;20057;-72
2023/03/31 06:32:32;;;;;;;2.45;0.65;;;19.70;65.50;;;;;;4989349;28;20484;-72
2023/03/31 06:35:00;;;;;;;3.00;0.77;;;19.70;66.10;;;;;;4990521;28;20108;-73
2023/03/31 06:37:27;;;;;;;1.58;0.20;;;19.70;65.50;;;;;;4989921;28;20065;-72
2023/03/31 06:39:54;;;;;;;1.48;0.55;;;19.70;65.60;;;;;;4988461;28;20419;-72
2023/03/31 06:42:21;;;;;;;2.35;0.30;;;19.60;65.60;;;;;;4984332;28;20053;-72
2023/03/31 06:44:48;;;;;;;3.08;1.23;;;19.60;65.50;;;;;;4988920;28;20054;-73
2023/03/31 06:47:15;;;;;;;2.40;0.30;;;19.60;65.60;;;;;;4990249;28;20054;-73
2023/03/31 06:49:42;;;;;;;1.88;0.10;;;19.50;65.50;;;;;;4988865;28;20055;-72
2023/03/31 06:52:10;;;;;;;1.35;0.20;;;19.60;65.60;;;;;;4989755;28;20050;-72
2023/03/31 06:54:37;;;;;;;2.30;0.85;;;19.50;65.70;;;;;;4986136;28;20101;-72
2023/03/31 06:57:04;;;;;;;1.80;1.05;;;19.50;65.70;;;;;;4987256;28;20058;-72
2023/03/31 06:59:31;;;;;;;2.72;0.25;;;19.50;65.70;;;;;;4986360;28;20050;-72
2023/03/31 07:01:58;;;;;;;2.13;0.80;;;19.50;65.70;;;;;;4987061;28;20046;-72
2023/03/31 07:04:25;;;;;;;2.00;0.13;;;19.40;65.60;;;;;;4987832;28;20065;-73
2023/03/31 07:06:52;;;;;;;1.52;0.10;;;19.50;65.70;;;;;;4987421;28;20443;-72
2023/03/31 07:09:22;;;;;;;3.38;1.08;;;19.40;65.70;;;;;;4989683;28;20056;-72
2023/03/31 07:11:49;;;;;;;2.38;0.30;;;19.40;65.70;;;;;;4989875;28;20450;-73
2023/03/31 07:14:16;;;;;;;1.23;0.63;;;19.50;65.80;;;;;;4988673;28;20058;-72
2023/03/31 07:16:43;;;;;;;1.38;0.10;;;19.50;65.80;;;;;;4990760;28;20046;-72
2023/03/31 07:19:10;;;;;;;2.00;0.70;;;19.40;65.70;;;;;;4990795;28;20050;-72
2023/03/31 07:21:37;;;;;;;1.98;0.70;;;19.40;65.80;;;;;;4992718;28;20061;-72
2023/03/31 07:24:04;;;;;;;1.77;0.20;;;19.40;65.80;;;;;;4991633;28;20710;-73
2023/03/31 07:26:33;;;;;;;2.10;0.70;;;19.40;65.80;;;;;;4992689;28;20074;-73
2023/03/31 07:29:00;;;;;;;1.00;0.10;;;19.40;65.80;;;;;;4991985;28;20050;-73
2023/03/31 07:31:27;;;;;;;2.00;0.68;;;19.40;65.80;;;;;;4991952;28;20058;-72
2023/03/31 07:33:54;;;;;;;2.83;0.68;;;19.40;65.80;;;;;;4980543;28;20054;-72
2023/03/31 07:36:21;;;;;;;2.20;1.08;;;19.40;65.80;;;;;;4972175;28;20051;-72
2023/03/31 07:38:48;;;;;;;1.85;0.52;;;19.40;65.80;;;;;;4978149;28;20109;-72
2023/03/31 07:41:19;;;;;;;1.63;0.20;;;19.40;65.80;;;;;;4992236;28;20124;-72
2023/03/31 07:43:48;;;;;;;1.65;0.20;;;19.40;65.80;;;;;;4992537;28;20121;-72
2023/03/31 07:46:17;;;;;;;2.10;0.60;;;19.40;65.80;;;;;;4992439;28;20380;-72
2023/03/31 07:48:45;;;;;;;1.95;0.60;;;19.40;65.80;;;;;;4992540;28;20621;-72
2023/03/31 07:51:12;;;;;;;2.38;0.55;;;19.30;66.40;;;;;;4979226;28;20054;-72
2023/03/31 07:53:39;;;;;;;2.20;0.88;;;19.30;65.80;;;;;;4973182;28;20113;-72
2023/03/31 07:56:06;;;;;;;1.63;0.50;;;19.30;65.80;;;;;;4986466;28;20046;-72
2023/03/31 07:58:33;;;;;;;1.60;0.57;;;19.30;65.80;;;;;;4992193;28;20503;-72
2023/03/31 08:01:02;;;;;;;1.42;0.68;;;19.30;65.80;;;;;;4992627;28;20054;-72
2023/03/31 08:03:28;;;;;;;2.28;0.30;;;19.30;65.80;;;;;;4992543;28;20078;-72
2023/03/31 08:05:55;;;;;;;2.35;0.80;;;19.30;65.90;;;;;;4990438;28;20051;-72
2023/03/31 08:08:22;;;;;;;2.15;0.52;;;19.30;65.90;;;;;;4991303;28;20052;-72
2023/03/31 08:10:50;;;;;;;1.70;0.20;;;19.30;65.90;;;;;;4991806;28;20061;-72
2023/03/31 08:13:17;;;;;;;1.48;0.35;;;19.20;65.90;;;;;;4992055;28;20055;-72
2023/03/31 08:15:44;;;;;;;2.25;0.90;;;19.30;65.90;;;;;;4992931;28;20051;-72
2023/03/31 08:18:12;;;;;;;2.42;0.82;;;19.30;66.00;;;;;;4991531;28;20554;-73
2023/03/31 08:20:39;;;;;;;2.83;1.13;;;19.20;65.90;;;;;;4991587;28;20054;-73
2023/03/31 08:23:08;;;;;;;1.90;0.70;;;19.20;65.90;;;;;;4992631;28;20057;-72
2023/03/31 08:25:34;;;;;;;1.17;0.20;;;19.20;65.90;;;;;;4990708;28;20121;-72
2023/03/31 08:28:01;;;;;;;3.03;0.30;;;19.30;65.90;;;;;;4991381;28;20050;-72
2023/03/31 08:30:28;;;;;;;2.15;0.40;;;19.30;65.90;;;;;;4988032;28;20054;-72
2023/03/31 08:32:55;;;;;;;2.30;0.28;;;19.20;65.90;;;;;;4990825;28;20046;-72
2023/03/31 08:35:24;;;;;;;1.75;0.20;;;19.20;65.90;;;;;;4990294;28;20050;-72
2023/03/31 08:37:51;;;;;;;1.60;0.30;;;19.20;65.90;;;;;;4990653;28;20071;-72
2023/03/31 08:40:22;;;;;;;1.67;0.60;;;19.20;65.90;;;;;;4989840;28;20061;-72
2023/03/31 08:42:51;;;;;;;1.65;0.88;;;19.20;65.90;;;;;;4988887;28;20100;-72
2023/03/31 08:45:22;;;;;;;1.30;0.35;;;19.20;65.90;;;;;;4990313;28;20077;-72
2023/03/31 08:47:53;;;;;;;1.92;0.73;;;19.20;65.90;;;;;;4991368;28;20054;-73
2023/03/31 08:50:24;;;;;;;2.03;1.27;;;19.20;65.90;;;;;;4991885;28;20062;-72
2023/03/31 08:52:59;;;;;;;1.00;0.30;;;19.20;65.90;;;;;;4991761;28;20153;-73
2023/03/31 08:55:31;;;;;;;2.20;0.77;;;19.20;65.90;;;;;;4991564;28;20065;-72
2023/03/31 08:58:03;;;;;;;2.53;0.68;;;19.20;65.90;;;;;;4989136;28;20050;-72
2023/03/31 09:00:41;;;;;;;1.85;0.55;;;19.10;66.50;;;;;;4989991;28;20883;-73
2023/03/31 09:03:18;;;;;;;1.15;0.10;;;19.10;65.90;;;;;;4989433;28;20079;-72
2023/03/31 09:05:51;;;;;;;1.83;0.70;;;19.20;66.00;;;;;;4984186;28;20385;-72
2023/03/31 09:08:33;;;;;;;1.98;0.10;;;19.10;65.90;;;;;;4990752;28;20503;-72
2023/03/31 09:11:13;;;;;;;1.05;0.10;;;19.10;65.90;;;;;;4986561;28;20523;-72
2023/03/31 09:14:12;;;;;;;1.88;0.68;;;19.20;66.00;;;;;;4990155;28;20058;-72
2023/03/31 09:16:47;;;;;;;1.75;0.52;;;19.10;65.90;;;;;;4965791;28;20408;-72
2023/03/31 09:19:18;;;;;;;2.05;0.30;;;19.10;65.90;;;;;;4974613;28;20050;-72
2023/03/31 09:21:51;;;;;;;1.00;0.08;;;19.10;65.90;;;;;;4978102;28;20054;-73
2023/03/31 09:24:22;;;;;;;1.98;0.77;;;19.10;65.90;;;;;;4989823;28;20073;-73
2023/03/31 09:26:53;;;;;;;1.35;0.70;;;19.10;65.90;;;;;;4987736;28;20056;-73
2023/03/31 09:29:26;;;;;;;2.22;0.30;;;19.10;65.90;;;;;;4988195;28;20050;-73
2023/03/31 09:31:54;;;;;;;1.67;0.70;;;19.10;65.90;;;;;;4988537;28;20064;-73
2023/03/31 09:34:25;;;;;;;1.40;0.70;;;19.10;65.90;;;;;;4987302;28;20056;-73
2023/03/31 09:36:54;;;;;;;1.17;0.57;;;19.10;65.90;;;;;;4988199;28;20054;-73
2023/03/31 09:39:21;;;;;;;1.83;0.20;;;19.10;65.90;;;;;;4991144;28;20058;-72
2023/03/31 09:41:50;;;;;;;1.55;0.47;;;19.10;65.80;;;;;;4989151;28;20045;-72
2023/03/31 09:44:27;;;;;;;1.85;1.00;;;19.10;65.90;;;;;;4989291;28;20057;-73
2023/03/31 09:46:55;;;;;;;1.13;0.20;;;19.20;65.90;;;;;;4970866;28;20065;-73
2023/03/31 09:49:26;;;;;;;2.10;0.88;;;19.10;65.90;;;;;;4988942;28;20052;-72
2023/03/31 09:52:05;;;;;;;1.50;0.50;;;19.10;65.90;;;;;;4987770;28;20077;-73
2023/03/31 09:54:38;;;;;;;1.38;0.95;;;19.10;65.90;;;;;;4988577;28;20054;-73
2023/03/31 09:57:14;;;;;;;1.67;0.55;;;19.10;65.90;;;;;;4988723;28;20050;-74
2023/03/31 09:59:42;;;;;;;1.55;0.63;;;19.20;65.90;;;;;;4987894;28;20078;-75
2023/03/31 10:02:39;;;;;;;1.83;0.63;;;19.20;65.90;;;;;;4989563;28;20072;-75
2023/03/31 10:05:08;;;;;;;1.60;0.68;;;19.20;66.00;;;;;;4945500;28;20070;-74
2023/03/31 10:07:36;;;;;;;3.08;0.20;;;19.20;65.90;;;;;;4977003;28;20146;-74
2023/03/31 10:10:11;;;;;;;1.80;0.85;;;19.20;66.00;;;;;;4988511;28;20046;-74
2023/03/31 10:12:38;;;;;;;1.40;0.80;;;19.20;66.00;;;;;;4987225;28;20105;-74
2023/03/31 10:15:21;;;;;;;1.98;0.20;;;19.20;66.00;;;;;;4988601;28;20046;-75
2023/03/31 10:17:48;;;;;;;1.20;0.20;;;19.20;66.10;;;;;;4989659;28;20050;-75
2023/03/31 10:20:24;;;;;;;1.30;0.55;;;19.10;66.10;;;;;;4989197;28;20411;-74
2023/03/31 10:22:52;;;;;;;1.77;0.85;;;19.20;66.20;;;;;;4986080;28;20065;-76
2023/03/31 10:25:23;;;;;;;2.10;0.75;;;19.20;66.20;;;;;;4980680;28;20114;-76
2023/03/31 10:27:54;;;;;;;1.95;0.70;;;19.20;66.20;;;;;;4989852;28;20058;-75
2023/03/31 10:30:23;;;;;;;1.60;0.82;;;19.20;66.20;;;;;;4988747;28;20431;-75
2023/03/31 10:32:50;;;;;;;1.02;0.20;;;19.20;66.20;;;;;;4988818;28;20074;-75
2023/03/31 10:35:25;;;;;;;1.45;0.20;;;19.20;66.20;;;;;;4988648;28;20057;-75
2023/03/31 10:37:58;;;;;;;1.73;0.85;;;19.20;66.30;;;;;;4989143;28;20054;-76
2023/03/31 10:40:27;;;;;;;2.28;0.95;;;19.20;66.30;;;;;;4977044;28;20065;-75
2023/03/31 10:43:05;;;;;;;1.30;0.60;;;19.20;66.30;;;;;;4989293;28;20065;-75
2023/03/31 10:45:38;;;;;;;3.15;0.60;;;19.20;66.30;;;;;;4973255;28;20050;-73
2023/03/31 10:48:17;;;;;;;3.65;0.57;;;19.30;66.30;;;;;;4980891;28;20459;-72
2023/03/31 10:50:44;;;;;;;2.25;0.68;;;19.20;66.30;;;;;;4989381;28;20402;-73
2023/03/31 10:53:15;;;;;;;1.80;0.20;;;19.30;66.40;;;;;;4990176;28;20054;-72
2023/03/31 10:55:50;;;;;;;1.52;0.70;;;19.20;67.00;;;;;;4988942;28;20057;-73
2023/03/31 10:58:28;;;;;;;3.17;0.77;;;19.30;66.40;;;;;;4983015;28;20486;-73
2023/03/31 11:01:08;;;;;;;3.35;0.60;;;19.30;66.50;;;;;;4991047;28;20073;-73
2023/03/31 11:03:55;;;;;;;3.45;0.88;;;19.30;66.60;;;;;;4990856;28;20046;-73
2023/03/31 11:06:28;;;;;;;2.92;0.65;;;19.30;66.70;;;;;;4989751;28;20082;-73
2023/03/31 11:09:07;;;;;;;4.15;0.63;;;19.40;66.70;;;;;;4991305;28;20054;-73
2023/03/31 11:12:02;;;;;;;2.72;0.70;;;19.50;66.80;;;;;;4988007;28;20054;-74
2023/03/31 11:14:43;;;;;;;3.63;0.50;;;19.50;66.70;;;;;;4989674;28;20105;-73
2023/03/31 11:17:26;;;;;;;4.72;0.73;;;19.60;66.80;;;;;;4991989;28;20045;-72
2023/03/31 11:20:01;;;;;;;3.13;1.08;;;19.70;66.70;;;;;;4991429;28;20069;-72
2023/03/31 11:22:34;;;;;;;3.70;0.75;;;19.70;66.60;;;;;;4989688;28;20053;-71
2023/03/31 11:25:12;;;;;;;3.50;0.90;;;19.80;66.60;;;;;;4991003;28;20042;-74
2023/03/31 11:27:52;;;;;;;2.90;0.70;;;19.90;66.60;;;;;;4981546;28;20047;-75
2023/03/31 11:30:24;;;;;;;2.45;0.30;;;20.00;66.70;;;;;;4991624;28;20054;-77
2023/03/31 11:33:05;;;;;;;3.13;0.73;;;20.10;66.50;;;;;;4990928;28;20042;-70
2023/03/31 11:35:53;;;;;;;4.40;1.20;;;20.30;66.70;;;;;;4993154;28;20046;-76
2023/03/31 11:38:39;;;;;;;3.30;1.02;;;20.40;66.60;;;;;;4992907;28;20057;-76
2023/03/31 11:41:11;;;;;;;2.50;0.80;;;20.50;66.20;;;;;;4978726;28;20093;-74
2023/03/31 11:43:43;;;;;;;2.85;0.80;;;20.60;66.10;;;;;;4992987;28;20062;-75
2023/03/31 11:46:15;;;;;;;2.78;0.40;;;20.60;66.10;;;;;;4990862;28;20130;-78
2023/03/31 11:48:47;;;;;;;3.33;0.90;;;20.60;66.00;;;;;;4991832;28;20063;-75
2023/03/31 11:51:18;;;;;;;2.35;0.75;;;20.60;66.10;;;;;;4991320;28;20408;-77
2023/03/31 11:53:46;;;;;;;2.90;0.88;;;20.60;66.20;;;;;;4990283;28;20061;-76
2023/03/31 11:56:16;;;;;;;1.90;0.75;;;20.60;66.30;;;;;;4992046;28;20061;-75
2023/03/31 11:58:47;;;;;;;2.17;1.02;;;20.60;66.40;;;;;;4995715;28;20418;-73
2023/03/31 12:01:21;;;;;;;4.40;0.90;;;20.60;66.50;;;;;;4997555;28;20042;-73
2023/03/31 12:03:56;;;;;;;1.42;0.20;;;20.60;66.70;;;;;;4995404;28;20051;-78
2023/03/31 12:06:27;;;;;;;3.75;1.35;;;20.60;66.80;;;;;;4990809;28;20392;-77
2023/03/31 12:09:05;;;;;;;1.98;0.77;;;20.60;66.90;;;;;;4992390;28;20050;-75
2023/03/31 12:11:38;;;;;;;4.68;1.15;;;20.60;67.10;;;;;;4990474;28;20094;-75
2023/03/31 12:14:17;;;;;;;4.15;0.52;;;20.60;67.20;;;;;;4990661;28;20058;-75
2023/03/31 12:16:46;;;;;;;2.45;0.93;;;20.60;67.30;;;;;;4990410;28;20046;-75
2023/03/31 12:19:18;;;;;;;2.42;1.25;;;20.60;67.30;;;;;;4990433;28;20057;-75
2023/03/31 12:21:51;;;;;;;3.22;0.77;;;20.60;67.40;;;;;;4994485;28;20049;-79
2023/03/31 12:24:18;;;;;;;4.35;0.77;;;20.60;68.00;;;;;;4985610;28;20054;-74
2023/03/31 12:26:56;;;;;;;3.45;0.90;;;20.60;67.40;;;;;;4989718;28;20060;-75
2023/03/31 12:29:31;;;;;;;4.43;1.02;;;20.60;67.50;;;;;;5005855;28;20113;-75
2023/03/31 12:32:01;;;;;;;3.45;0.30;;;20.60;67.60;;;;;;4990412;28;20069;-72
2023/03/31 12:34:29;;;;;;;2.38;0.70;;;20.50;67.60;;;;;;4995920;28;20057;-74
2023/03/31 12:37:20;;;;;;;3.25;0.80;;;20.50;67.60;;;;;;4991276;28;20574;-75
2023/03/31 12:39:59;;;;;;;1.92;0.30;;;20.50;67.70;;;;;;4982917;28;20065;-74
2023/03/31 12:43:00;;;;;;;1.98;0.85;;;20.50;67.70;;;;;;4988323;28;20077;-74
2023/03/31 12:45:29;;;;;;;2.28;1.00;;;20.50;67.90;;;;;;4988255;28;20393;-74
2023/03/31 12:48:23;;;;;;;2.10;0.13;;;20.40;67.80;;;;;;4988871;28;20470;-74
2023/03/31 12:51:03;;;;;;;2.17;0.30;;;20.40;68.50;;;;;;4982368;28;20693;-75
2023/03/31 12:53:38;;;;;;;2.22;0.70;;;20.40;67.90;;;;;;4989069;28;20443;-74
2023/03/31 12:56:05;;;;;;;1.85;0.60;;;20.50;68.00;;;;;;4987999;28;20047;-74
2023/03/31 12:58:46;;;;;;;2.75;0.25;;;20.40;67.90;;;;;;4983910;28;20050;-74
2023/03/31 13:01:16;;;;;;;2.80;1.15;;;20.50;68.10;;;;;;4977062;28;20053;-75
2023/03/31 13:04:07;;;;;;;2.17;0.60;;;20.50;68.00;;;;;;4990035;28;20065;-75
2023/03/31 13:06:55;;;;;;;2.55;0.75;;;20.50;68.00;;;;;;4989360;28;20054;-73
2023/03/31 13:09:56;;;;;;;3.22;1.00;;;20.40;68.10;;;;;;4991496;28;20058;-74
2023/03/31 13:12:26;;;;;;;1.85;0.20;;;20.50;68.20;;;;;;4934169;29;20825;-74